createdAt,value
2023-01-11T00:00:12.354Z,19.35
2023-01-11T00:03:04.186Z,18.92
2023-01-11T00:05:37.277Z,18.85
2023-01-11T00:08:26.189Z,19.00
2023-01-11T00:11:02.303Z,20.10
2023-01-11T00:13:52.185Z,18.40
2023-01-11T00:16:32.192Z,19.83
2023-01-11T00:19:19.173Z,18.83
2023-01-11T00:22:02.195Z,18.67
2023-01-11T00:24:56.178Z,18.63
2023-01-11T00:27:50.455Z,18.00
2023-01-11T00:30:44.180Z,19.50
2023-01-11T00:33:38.208Z,18.08
2023-01-11T00:36:25.192Z,17.73
2023-01-11T00:39:05.220Z,20.05
2023-01-11T00:42:17.215Z,18.98
2023-01-11T00:45:29.193Z,17.98
2023-01-11T00:48:23.235Z,16.90
2023-01-11T00:51:17.203Z,17.45
2023-01-11T00:54:04.198Z,17.65
2023-01-11T00:56:44.203Z,17.10
2023-01-11T00:59:38.216Z,15.82
2023-01-11T01:02:25.211Z,15.77
2023-01-11T01:04:58.305Z,16.27
2023-01-11T01:07:45.219Z,16.88
2023-01-11T01:10:27.194Z,16.65
2023-01-11T01:13:43.228Z,17.20
2023-01-11T01:16:30.249Z,16.63
2023-01-11T01:19:03.320Z,16.38
2023-01-11T01:21:50.213Z,15.90
2023-01-11T01:24:30.215Z,16.70
2023-01-11T01:27:24.231Z,16.50
2023-01-11T01:30:12.241Z,16.17
2023-01-11T01:32:53.242Z,15.48
2023-01-11T01:35:40.209Z,17.73
2023-01-11T01:38:13.327Z,16.08
2023-01-11T01:41:00.234Z,16.52
2023-01-11T01:43:54.319Z,16.17
2023-01-11T01:46:41.340Z,16.25
2023-01-11T01:49:22.307Z,19.70
2023-01-11T01:52:09.441Z,17.52
2023-01-11T01:54:48.360Z,17.30
2023-01-11T01:57:39.288Z,17.00
2023-01-11T02:00:22.258Z,17.52
2023-01-11T02:03:16.250Z,17.73
2023-01-11T02:06:03.239Z,19.23
2023-01-11T02:08:42.325Z,16.92
2023-01-11T02:11:38.242Z,17.88
2023-01-11T02:14:15.386Z,17.13
2023-01-11T02:17:02.255Z,16.75
2023-01-11T02:19:50.332Z,16.42
2023-01-11T02:22:58.242Z,16.33
2023-01-11T02:26:05.225Z,17.10
2023-01-11T02:29:07.285Z,16.80
2023-01-11T02:32:20.236Z,16.50
2023-01-11T02:35:26.252Z,15.60
2023-01-11T02:38:29.283Z,17.27
2023-01-11T02:42:21.261Z,16.30
2023-01-11T02:45:42.248Z,15.52
2023-01-11T02:48:25.349Z,16.40
2023-01-11T02:51:26.262Z,18.08
2023-01-11T02:54:16.399Z,16.38
2023-01-11T02:56:52.339Z,14.85
2023-01-11T02:59:42.255Z,13.98
2023-01-11T03:02:16.896Z,14.38
2023-01-11T03:05:03.268Z,16.17
2023-01-11T03:07:58.337Z,16.58
2023-01-11T03:11:08.297Z,16.73
2023-01-11T03:14:07.317Z,16.92
2023-01-11T03:17:27.304Z,17.15
2023-01-11T03:20:18.238Z,16.73
2023-01-11T03:22:58.259Z,17.20
2023-01-11T03:26:02.279Z,17.38
2023-01-11T03:28:48.305Z,18.20
2023-01-11T03:32:00.301Z,17.77
2023-01-11T03:34:51.376Z,15.73
2023-01-11T03:37:44.282Z,17.17
2023-01-11T03:40:24.350Z,17.70
2023-01-11T03:43:19.273Z,17.33
2023-01-11T03:46:01.357Z,16.63
2023-01-11T03:49:16.265Z,18.10
2023-01-11T03:52:05.271Z,17.38
2023-01-11T03:54:40.413Z,17.70
2023-01-11T03:57:40.296Z,18.77
2023-01-11T04:00:15.354Z,18.48
2023-01-11T04:03:02.264Z,18.98
2023-01-11T04:05:35.423Z,15.98
2023-01-11T04:08:22.285Z,15.82
2023-01-11T04:10:55.397Z,16.80
2023-01-11T04:13:42.280Z,18.00
2023-01-11T04:16:22.307Z,17.30
2023-01-11T04:19:16.277Z,15.25
2023-01-11T04:22:03.268Z,17.10
2023-01-11T04:24:36.378Z,18.10
2023-01-11T04:27:23.291Z,17.55
2023-01-11T04:29:56.463Z,16.10
2023-01-11T04:32:43.265Z,15.48
2023-01-11T04:35:16.475Z,16.08
2023-01-11T04:38:04.269Z,17.50
2023-01-11T04:40:37.376Z,16.92
2023-01-11T04:43:24.286Z,16.08
2023-01-11T04:46:04.316Z,16.50
2023-01-11T04:48:58.362Z,17.73
2023-01-11T04:51:52.315Z,18.20
2023-01-11T04:54:46.307Z,18.65
2023-01-11T04:57:33.273Z,17.17
2023-01-11T05:00:10.771Z,16.60
2023-01-11T05:02:57.283Z,16.25
2023-01-11T05:05:30.399Z,16.77
2023-01-11T05:08:17.329Z,15.25
2023-01-11T05:10:50.383Z,15.10
2023-01-11T05:13:49.319Z,15.00
2023-01-11T05:16:28.485Z,14.85
2023-01-11T05:19:16.298Z,17.00
2023-01-11T05:21:56.299Z,16.30
2023-01-11T05:24:43.284Z,15.10
2023-01-11T05:27:23.309Z,14.80
2023-01-11T05:30:10.302Z,14.88
2023-01-11T05:32:50.306Z,14.98
2023-01-11T05:35:44.332Z,14.27
2023-01-11T05:38:31.329Z,13.13
2023-01-11T05:41:13.323Z,13.98
2023-01-11T05:44:20.306Z,14.68
2023-01-11T05:47:00.319Z,15.00
2023-01-11T05:49:54.303Z,14.95
2023-01-11T05:52:41.326Z,13.13
2023-01-11T05:55:15.467Z,14.30
2023-01-11T05:58:02.318Z,13.73
2023-01-11T06:00:35.464Z,15.90
2023-01-11T06:03:22.352Z,14.10
2023-01-11T06:05:55.468Z,16.13
2023-01-11T06:08:42.308Z,13.68
2023-01-11T06:11:15.413Z,14.57
2023-01-11T06:14:02.323Z,14.85
2023-01-11T06:16:35.441Z,14.27
2023-01-11T06:19:22.324Z,14.07
2023-01-11T06:22:02.323Z,14.13
2023-01-11T06:24:49.326Z,13.98
2023-01-11T06:27:23.451Z,13.65
2023-01-11T06:30:10.305Z,13.13
2023-01-11T06:32:50.348Z,13.88
2023-01-11T06:35:44.314Z,13.02
2023-01-11T06:38:32.349Z,13.35
2023-01-11T06:41:10.317Z,14.57
2023-01-11T06:43:57.331Z,16.27
2023-01-11T06:46:30.465Z,15.25
2023-01-11T06:49:18.364Z,15.13
2023-01-11T06:52:12.323Z,13.18
2023-01-11T06:54:59.327Z,14.60
2023-01-11T06:57:33.632Z,15.02
2023-01-11T07:00:20.393Z,16.27
2023-01-11T07:02:54.442Z,15.63
2023-01-11T07:05:42.379Z,15.07
2023-01-11T07:08:23.340Z,15.02
2023-01-11T07:11:10.456Z,15.73
2023-01-11T07:13:50.365Z,14.48
2023-01-11T07:16:37.336Z,15.57
2023-01-11T07:19:17.339Z,14.80
2023-01-11T07:22:04.327Z,15.30
2023-01-11T07:24:37.463Z,16.42
2023-01-11T07:27:26.329Z,15.48
2023-01-11T07:30:02.292Z,16.77
2023-01-11T07:32:49.347Z,15.25
2023-01-11T07:35:29.340Z,16.88
2023-01-11T07:38:17.365Z,15.48
2023-01-11T07:40:57.345Z,16.65
2023-01-11T07:43:44.367Z,15.40
2023-01-11T07:46:17.578Z,15.35
2023-01-11T07:49:04.375Z,16.67
2023-01-11T07:51:44.468Z,16.25
2023-01-11T07:54:25.346Z,15.45
2023-01-11T07:57:05.352Z,13.98
2023-01-11T07:59:38.452Z,16.38
2023-01-11T08:02:25.438Z,15.13
2023-01-11T08:04:58.491Z,17.05
2023-01-11T08:07:48.345Z,15.82
2023-01-11T08:10:29.471Z,14.45
2023-01-11T08:13:44.354Z,16.20
2023-01-11T08:16:33.485Z,15.68
2023-01-11T08:19:06.470Z,14.88
2023-01-11T08:21:53.368Z,16.38
2023-01-11T08:24:27.044Z,14.70
2023-01-11T08:27:13.462Z,15.65
2023-01-11T08:29:46.476Z,15.35
2023-01-11T08:32:35.652Z,13.48
2023-01-11T08:35:08.488Z,15.05
2023-01-11T08:37:55.384Z,14.68
2023-01-11T08:40:36.359Z,15.27
2023-01-11T08:43:23.380Z,16.20
2023-01-11T08:46:04.386Z,15.63
2023-01-11T08:48:53.391Z,14.73
2023-01-11T08:51:33.380Z,16.02
2023-01-11T08:54:28.403Z,16.08
2023-01-11T08:57:22.377Z,14.25
2023-01-11T09:00:14.405Z,15.00
2023-01-11T09:02:54.426Z,12.73
2023-01-11T09:05:48.370Z,13.07
2023-01-11T09:08:35.381Z,12.88
2023-01-11T09:11:35.407Z,13.55
2023-01-11T09:14:22.398Z,12.60
2023-01-11T09:16:55.526Z,15.45
2023-01-11T09:19:42.382Z,14.52
2023-01-11T09:22:15.510Z,14.32
2023-01-11T09:25:05.391Z,13.35
2023-01-11T09:27:38.503Z,11.90
2023-01-11T09:30:27.397Z,11.52
2023-01-11T09:33:00.511Z,11.18
2023-01-11T09:35:49.417Z,11.93
2023-01-11T09:38:25.211Z,14.32
2023-01-11T09:41:26.417Z,12.25
2023-01-11T09:44:29.404Z,13.55
2023-01-11T09:47:28.405Z,12.90
2023-01-11T09:50:07.605Z,14.70
2023-01-11T09:52:59.425Z,14.48
2023-01-11T09:56:01.415Z,13.55
2023-01-11T09:59:25.412Z,13.02
2023-01-11T10:02:32.392Z,13.93
2023-01-11T10:05:30.428Z,14.75
2023-01-11T10:18:26.284Z,13.30
2023-01-11T10:19:11.329Z,12.95
2023-01-11T10:22:04.497Z,13.88
2023-01-11T10:25:07.531Z,12.30
2023-01-11T10:28:06.026Z,11.10
2023-01-11T10:31:14.412Z,12.23
2023-01-11T10:34:12.240Z,11.75
2023-01-11T10:37:43.424Z,16.20
2023-01-11T10:41:04.431Z,17.23
2023-01-11T10:43:56.399Z,14.07
2023-01-11T10:46:40.438Z,13.73
2023-01-11T10:49:49.425Z,13.32
2023-01-11T10:52:54.628Z,14.20
2023-01-11T10:55:59.421Z,15.35
2023-01-11T10:59:07.503Z,14.85
2023-01-11T11:02:38.489Z,18.00
2023-01-11T11:06:03.422Z,15.32
2023-01-11T11:08:53.426Z,13.10
2023-01-11T11:11:47.434Z,20.60
2023-01-11T11:14:41.427Z,17.98
2023-01-11T11:17:37.442Z,16.90
2023-01-11T11:20:36.429Z,15.48
2023-01-11T11:23:28.481Z,18.20
2023-01-11T11:26:05.555Z,23.73
2023-01-11T11:29:13.423Z,18.95
2023-01-11T11:31:57.520Z,17.35
2023-01-11T11:35:05.353Z,14.38
2023-01-11T11:37:52.362Z,14.32
2023-01-11T11:41:10.364Z,16.25
2023-01-11T11:44:04.377Z,16.98
2023-01-11T11:47:20.356Z,14.40
2023-01-11T11:50:44.795Z,14.10
2023-01-11T11:53:38.359Z,16.80
2023-01-11T11:56:48.366Z,21.25
2023-01-11T11:59:37.418Z,19.10
2023-01-11T12:02:25.472Z,15.70
2023-01-11T12:05:17.403Z,16.35
2023-01-11T12:07:55.731Z,14.13
2023-01-11T12:10:42.381Z,12.63
2023-01-11T12:13:42.393Z,15.18
2023-01-11T12:16:36.468Z,14.52
2023-01-11T12:19:51.383Z,13.10
2023-01-11T12:22:30.597Z,13.82
2023-01-11T12:25:28.390Z,13.13
2023-01-11T12:28:06.469Z,13.43
2023-01-11T12:31:19.410Z,15.30
2023-01-11T12:34:15.375Z,13.52
2023-01-11T12:37:38.408Z,14.25
2023-01-11T12:40:25.388Z,12.75
2023-01-11T12:43:39.757Z,15.48
2023-01-11T12:47:06.397Z,12.13
2023-01-11T12:49:48.486Z,14.35
2023-01-11T12:53:32.394Z,12.48
2023-01-11T12:56:49.381Z,14.00
2023-01-11T12:59:48.393Z,12.40
2023-01-11T13:02:44.499Z,13.13
2023-01-11T13:05:45.415Z,13.15
2023-01-11T13:08:59.414Z,11.15
2023-01-11T13:12:03.397Z,12.25
2023-01-11T13:15:15.423Z,13.10
2023-01-11T13:18:08.414Z,12.77
2023-01-11T13:21:02.581Z,12.75
2023-01-11T13:24:15.392Z,14.77
2023-01-11T13:27:08.568Z,13.02
2023-01-11T13:29:53.417Z,11.63
2023-01-11T13:32:52.397Z,11.82
2023-01-11T13:35:45.422Z,18.73
2023-01-11T13:39:01.426Z,16.08
2023-01-11T13:42:05.437Z,19.15
2023-01-11T13:45:14.406Z,17.15
2023-01-11T13:48:04.454Z,19.17
2023-01-11T13:50:50.463Z,18.80
2023-01-11T13:53:57.417Z,18.42
2023-01-11T13:56:49.406Z,23.00
2023-01-11T13:59:40.428Z,18.95
2023-01-11T14:02:41.425Z,20.77
2023-01-11T14:05:14.585Z,23.98
2023-01-11T14:08:16.455Z,20.45
2023-01-11T14:11:00.439Z,23.45
2023-01-11T14:14:29.467Z,22.35
2023-01-11T14:17:53.427Z,22.95
2023-01-11T14:21:10.562Z,19.55
2023-01-11T14:23:59.427Z,15.57
2023-01-11T14:27:13.487Z,15.68
2023-01-11T14:30:21.425Z,14.85
2023-01-11T14:32:54.541Z,13.57
2023-01-11T14:36:19.433Z,13.73
2023-01-11T14:39:18.616Z,13.88
2023-01-11T14:42:16.267Z,15.90
2023-01-11T14:45:14.603Z,15.88
2023-01-11T14:48:28.448Z,16.45
2023-01-11T14:51:17.489Z,16.33
2023-01-11T14:54:30.443Z,15.93
2023-01-11T14:57:58.454Z,19.23
2023-01-11T15:00:41.510Z,20.50
2023-01-11T15:03:35.391Z,19.10
2023-01-11T15:06:26.442Z,25.00
2023-01-11T15:09:01.606Z,25.67
2023-01-11T15:11:48.468Z,26.08
2023-01-11T15:14:37.935Z,25.77
2023-01-11T15:17:45.472Z,24.17
2023-01-11T15:20:24.551Z,24.77
2023-01-11T15:23:12.435Z,21.27
2023-01-11T15:25:45.578Z,25.30
2023-01-11T15:28:44.469Z,36.15
2023-01-11T15:31:56.462Z,27.48
2023-01-11T15:34:53.444Z,25.95
2023-01-11T15:38:01.466Z,25.25
2023-01-11T15:40:57.460Z,28.52
2023-01-11T15:44:08.466Z,23.70
2023-01-11T15:47:02.509Z,22.48
2023-01-11T15:50:19.463Z,22.67
2023-01-11T15:53:11.485Z,21.38
2023-01-11T15:56:26.454Z,22.30
2023-01-11T15:59:40.529Z,22.02
2023-01-11T16:02:26.463Z,23.60
2023-01-11T16:05:37.463Z,22.92
2023-01-11T16:08:42.457Z,21.42
2023-01-11T16:11:30.592Z,25.25
2023-01-11T16:14:26.470Z,27.02
2023-01-11T16:17:07.482Z,26.45
2023-01-11T16:20:03.461Z,28.73
2023-01-11T16:23:10.480Z,25.80
2023-01-11T16:26:11.487Z,25.17
2023-01-11T16:29:03.480Z,24.83
2023-01-11T16:32:06.478Z,27.33
2023-01-11T16:35:00.938Z,27.90
2023-01-11T16:37:53.480Z,27.65
2023-01-11T16:40:32.600Z,26.40
2023-01-11T16:43:37.478Z,25.85
2023-01-11T16:46:10.636Z,24.00
2023-01-11T16:49:16.539Z,26.92
2023-01-11T16:51:49.600Z,28.30
2023-01-11T16:54:39.475Z,39.20
2023-01-11T16:57:20.617Z,37.95
2023-01-11T17:00:10.494Z,38.28
2023-01-11T17:02:47.216Z,36.72
2023-01-11T17:05:33.506Z,39.05
2023-01-11T17:08:13.492Z,38.58
2023-01-11T17:11:03.515Z,44.63
2023-01-11T17:13:54.765Z,39.80
2023-01-11T17:16:47.657Z,37.85
2023-01-11T17:19:23.608Z,35.13
2023-01-11T17:22:12.487Z,34.20
2023-01-11T17:24:53.653Z,33.80
2023-01-11T17:27:47.514Z,31.80
2023-01-11T17:30:27.703Z,34.47
2023-01-11T17:33:39.487Z,37.08
2023-01-11T17:36:33.517Z,28.83
2023-01-11T17:39:41.499Z,27.83
2023-01-11T17:42:54.512Z,27.55
2023-01-11T17:45:49.541Z,27.85
2023-01-11T17:48:36.524Z,29.23
2023-01-11T17:51:11.610Z,33.55
2023-01-11T17:53:58.521Z,30.55
2023-01-11T17:56:45.617Z,31.65
2023-01-11T17:59:36.498Z,31.90
2023-01-11T18:02:20.677Z,38.28
2023-01-11T18:05:08.527Z,60.05
2023-01-11T18:07:49.640Z,41.13
2023-01-11T18:10:46.510Z,36.83
2023-01-11T18:13:38.545Z,33.05
2023-01-11T18:16:33.580Z,30.73
2023-01-11T18:19:44.542Z,27.40
2023-01-11T18:22:46.522Z,26.40
2023-01-11T18:25:42.521Z,30.13
2023-01-11T18:28:35.532Z,27.92
2023-01-11T18:31:08.673Z,32.30
2023-01-11T18:33:55.527Z,36.08
2023-01-11T18:36:38.526Z,41.70
2023-01-11T18:39:32.533Z,37.55
2023-01-11T18:42:26.524Z,37.08
2023-01-11T18:44:59.666Z,36.08
2023-01-11T18:47:46.554Z,37.08
2023-01-11T18:50:21.066Z,35.50
2023-01-11T18:53:07.531Z,34.28
2023-01-11T18:55:47.539Z,29.80
2023-01-11T18:58:41.477Z,21.90
2023-01-11T19:01:28.825Z,22.52
2023-01-11T19:04:02.644Z,23.50
2023-01-11T19:06:49.527Z,36.10
2023-01-11T19:09:22.657Z,33.35
2023-01-11T19:12:09.545Z,35.00
2023-01-11T19:14:42.695Z,35.33
2023-01-11T19:17:29.544Z,35.33
2023-01-11T19:20:02.657Z,35.92
2023-01-11T19:22:49.531Z,32.85
2023-01-11T19:25:29.551Z,29.10
2023-01-11T19:28:23.556Z,28.67
2023-01-11T19:31:14.583Z,26.63
2023-01-11T19:33:47.801Z,27.20
2023-01-11T19:36:38.540Z,28.75
2023-01-11T19:39:19.551Z,28.15
2023-01-11T19:42:09.556Z,27.40
2023-01-11T19:44:51.547Z,27.45
2023-01-11T19:47:46.554Z,29.92
2023-01-11T19:50:33.562Z,26.60
2023-01-11T19:53:06.636Z,25.55
2023-01-11T19:55:53.560Z,27.33
2023-01-11T19:58:33.557Z,27.25
2023-01-11T20:01:20.563Z,27.10
2023-01-11T20:04:00.561Z,27.90
2023-01-11T20:06:59.585Z,30.35
2023-01-11T20:09:46.547Z,37.50
2023-01-11T20:12:26.580Z,38.42
2023-01-11T20:15:20.549Z,37.80
2023-01-11T20:18:07.573Z,38.88
2023-01-11T20:20:47.557Z,37.97
2023-01-11T20:23:37.571Z,38.13
2023-01-11T20:26:15.379Z,42.03
2023-01-11T20:29:03.564Z,36.33
2023-01-11T20:31:44.572Z,34.38
2023-01-11T20:34:38.583Z,33.95
2023-01-11T20:37:32.567Z,30.20
2023-01-11T20:40:19.592Z,29.63
2023-01-11T20:42:59.577Z,31.42
2023-01-11T20:45:53.612Z,30.48
2023-01-11T20:48:47.541Z,32.35
2023-01-11T20:51:34.568Z,32.88
2023-01-11T20:54:08.796Z,32.47
2023-01-11T20:56:55.570Z,40.38
2023-01-11T20:59:28.854Z,40.65
2023-01-11T21:02:16.557Z,38.88
2023-01-11T21:04:56.580Z,37.28
2023-01-11T21:07:43.625Z,33.55
2023-01-11T21:10:24.577Z,33.17
2023-01-11T21:13:18.564Z,30.27
2023-01-11T21:16:22.660Z,30.83
2023-01-11T21:19:11.589Z,31.52
2023-01-11T21:21:51.584Z,34.33
2023-01-11T21:24:47.537Z,35.08
2023-01-11T21:27:34.577Z,32.92
2023-01-11T21:30:07.705Z,32.58
2023-01-11T21:32:54.583Z,30.80
2023-01-11T21:35:34.582Z,30.90
2023-01-11T21:38:28.577Z,31.95
2023-01-11T21:41:17.576Z,31.80
2023-01-11T21:43:51.701Z,32.22
2023-01-11T21:46:38.693Z,30.50
2023-01-11T21:49:12.760Z,33.20
2023-01-11T21:51:59.591Z,33.75
2023-01-11T21:54:32.758Z,32.50
2023-01-11T21:57:19.583Z,30.98
2023-01-11T21:59:59.586Z,35.45
2023-01-11T22:02:53.597Z,30.92
2023-01-11T22:05:40.582Z,32.05
2023-01-11T22:08:13.717Z,32.03
2023-01-11T22:11:07.598Z,31.95
2023-01-11T22:13:41.745Z,31.73
2023-01-11T22:16:28.667Z,32.03
2023-01-11T22:19:09.592Z,32.17
2023-01-11T22:21:56.613Z,31.95
2023-01-11T22:24:29.706Z,32.65
2023-01-11T22:27:16.648Z,31.33
2023-01-11T22:29:52.164Z,32.67
2023-01-11T22:32:38.605Z,32.08
2023-01-11T22:35:18.602Z,35.45
2023-01-11T22:38:05.610Z,36.92
2023-01-11T22:40:38.724Z,34.17
2023-01-11T22:43:25.609Z,31.95
2023-01-11T22:46:13.597Z,30.85
2023-01-11T22:49:00.612Z,30.45
2023-01-11T22:51:40.626Z,30.50
2023-01-11T22:54:27.603Z,31.88
2023-01-11T22:57:00.717Z,32.53
2023-01-11T22:59:47.640Z,32.55
2023-01-11T23:02:20.706Z,32.50
2023-01-11T23:05:07.596Z,34.95
2023-01-11T23:07:40.756Z,32.78
2023-01-11T23:10:28.626Z,34.25
2023-01-11T23:13:36.943Z,34.38
2023-01-11T23:16:23.656Z,31.80
2023-01-11T23:18:56.775Z,33.40
2023-01-11T23:21:47.610Z,32.13
2023-01-11T23:24:29.618Z,31.23
2023-01-11T23:27:16.653Z,30.98
2023-01-11T23:29:56.629Z,32.88
2023-01-11T23:32:43.631Z,31.25
2023-01-11T23:35:17.720Z,32.60
2023-01-11T23:38:04.626Z,31.13
2023-01-11T23:41:04.065Z,30.13
2023-01-11T23:43:50.613Z,28.38
2023-01-11T23:46:50.639Z,28.15
2023-01-11T23:49:45.608Z,29.98
2023-01-11T23:52:35.646Z,29.58
2023-01-11T23:55:08.727Z,29.27
2023-01-11T23:58:15.639Z,28.80
